createdAt,value
2023-01-05T00:02:06.984Z,79.40
2023-01-05T00:07:08.438Z,79.59
2023-01-05T00:12:29.184Z,79.67
2023-01-05T00:17:49.256Z,79.61
2023-01-05T00:22:53.555Z,79.97
2023-01-05T00:27:56.419Z,79.67
2023-01-05T00:32:58.031Z,80.01
2023-01-05T00:37:59.404Z,80.16
2023-01-05T00:43:01.899Z,80.11
2023-01-05T00:48:03.572Z,80.62
2023-01-05T00:53:04.937Z,80.61
2023-01-05T00:58:06.325Z,80.64
2023-01-05T01:03:09.064Z,80.22
2023-01-05T01:08:10.475Z,80.60
2023-01-05T01:13:11.857Z,80.02
2023-01-05T01:18:13.218Z,80.28
2023-01-05T01:23:14.692Z,80.76
2023-01-05T01:28:16.085Z,80.27
2023-01-05T01:33:17.496Z,80.30
2023-01-05T01:38:19.016Z,80.53
2023-01-05T01:43:39.756Z,80.60
2023-01-05T01:48:46.071Z,80.56
2023-01-05T01:53:51.431Z,80.36
2023-01-05T01:58:53.720Z,80.66
2023-01-05T02:03:55.852Z,80.32
2023-01-05T02:08:57.350Z,80.34
2023-01-05T02:14:10.137Z,80.28
2023-01-05T02:19:50.805Z,80.44
2023-01-05T02:25:24.612Z,79.94
2023-01-05T02:31:11.243Z,79.92
2023-01-05T02:36:28.519Z,79.74
2023-01-05T02:41:33.052Z,80.00
2023-01-05T02:46:34.498Z,79.64
2023-01-05T02:51:39.668Z,78.85
2023-01-05T02:56:46.941Z,78.56
2023-01-05T03:01:55.546Z,77.98
2023-01-05T03:07:03.781Z,77.34
2023-01-05T03:12:32.496Z,77.36
2023-01-05T03:17:41.566Z,77.13
2023-01-05T03:23:03.280Z,76.93
2023-01-05T03:28:26.972Z,76.08
2023-01-05T03:34:03.329Z,75.81
2023-01-05T03:39:07.730Z,75.33
2023-01-05T03:44:09.386Z,75.48
2023-01-05T03:49:11.364Z,74.48
2023-01-05T03:54:12.749Z,74.31
2023-01-05T03:59:14.394Z,73.63
2023-01-05T04:04:15.858Z,73.05
2023-01-05T04:09:17.467Z,73.02
2023-01-05T04:14:18.869Z,72.50
2023-01-05T04:19:20.184Z,72.53
2023-01-05T04:24:21.542Z,72.09
2023-01-05T04:29:22.920Z,72.26
2023-01-05T04:34:24.246Z,72.46
2023-01-05T04:39:25.574Z,72.39
2023-01-05T04:44:27.031Z,72.54
2023-01-05T04:49:28.376Z,72.74
2023-01-05T04:54:29.849Z,72.49
2023-01-05T04:59:31.227Z,72.11
2023-01-05T05:04:32.729Z,72.30
2023-01-05T05:09:34.108Z,72.48
2023-01-05T05:14:35.769Z,72.60
2023-01-05T05:19:37.101Z,72.50
2023-01-05T05:24:38.480Z,72.51
2023-01-05T05:29:39.837Z,72.10
2023-01-05T05:34:41.199Z,72.57
2023-01-05T05:39:42.513Z,72.26
2023-01-05T05:44:43.941Z,72.35
2023-01-05T05:49:45.409Z,72.60
2023-01-05T05:54:46.761Z,72.10
2023-01-05T05:59:48.081Z,71.96
2023-01-05T06:04:49.425Z,72.09
2023-01-05T06:09:50.774Z,72.14
2023-01-05T06:14:52.374Z,71.59
2023-01-05T06:19:53.841Z,71.96
2023-01-05T06:24:55.385Z,71.70
2023-01-05T06:29:56.824Z,71.09
2023-01-05T06:34:58.164Z,71.11
2023-01-05T06:39:59.899Z,70.79
2023-01-05T06:45:01.229Z,70.94
2023-01-05T06:50:02.700Z,70.39
2023-01-05T06:55:04.433Z,70.70
2023-01-05T07:00:09.340Z,70.30
2023-01-05T07:05:10.840Z,70.67
2023-01-05T07:10:12.175Z,70.58
2023-01-05T07:15:13.542Z,70.25
2023-01-05T07:20:15.117Z,70.28
2023-01-05T07:25:16.484Z,70.31
2023-01-05T07:30:18.473Z,70.39
2023-01-05T07:35:19.967Z,70.13
2023-01-05T07:40:21.331Z,70.21
2023-01-05T07:45:22.711Z,69.80
2023-01-05T07:50:24.077Z,69.99
2023-01-05T07:55:25.760Z,70.48
2023-01-05T08:00:27.160Z,71.22
2023-01-05T08:05:33.886Z,72.21
2023-01-05T08:10:37.631Z,72.33
2023-01-05T08:15:39.732Z,71.96
2023-01-05T08:20:41.518Z,71.76
2023-01-05T08:25:42.928Z,70.88
2023-01-05T08:30:44.505Z,71.10
2023-01-05T08:35:45.931Z,71.09
2023-01-05T08:40:47.299Z,70.60
2023-01-05T08:45:50.260Z,70.93
2023-01-05T08:50:51.828Z,70.96
2023-01-05T08:55:53.354Z,71.11
2023-01-05T09:00:54.950Z,71.06
2023-01-05T09:05:59.345Z,71.92
2023-01-05T09:11:18.450Z,72.49
2023-01-05T09:21:44.535Z,72.53
2023-01-05T09:26:46.200Z,72.63
2023-01-05T09:31:47.698Z,73.68
2023-01-05T09:36:49.162Z,72.92
2023-01-05T09:42:00.744Z,72.85
2023-01-05T09:47:11.128Z,71.68
2023-01-05T09:52:13.806Z,71.66
2023-01-05T09:57:25.148Z,71.06
2023-01-05T10:02:44.066Z,71.17
2023-01-05T10:07:51.228Z,70.35
2023-01-05T10:13:11.238Z,70.29
2023-01-05T10:18:21.021Z,70.04
2023-01-05T10:23:31.806Z,69.49
2023-01-05T10:28:41.708Z,68.57
2023-01-05T10:34:05.517Z,68.66
2023-01-05T10:39:42.540Z,68.31
2023-01-05T10:45:11.834Z,68.53
2023-01-05T10:50:35.955Z,67.73
2023-01-05T10:55:45.090Z,67.59
2023-01-05T11:00:47.260Z,67.48
2023-01-05T11:05:48.892Z,66.98
2023-01-05T11:10:57.324Z,66.82
2023-01-05T11:16:17.868Z,66.63
2023-01-05T11:21:23.245Z,66.83
2023-01-05T11:26:29.691Z,66.62
2023-01-05T11:31:42.732Z,66.77
2023-01-05T11:36:52.189Z,66.56
2023-01-05T11:42:20.223Z,66.33
2023-01-05T11:47:34.294Z,66.22
2023-01-05T11:52:50.609Z,66.17
2023-01-05T11:58:00.151Z,66.15
2023-01-05T12:03:38.915Z,66.19
2023-01-05T12:08:58.282Z,65.67
2023-01-05T12:14:21.353Z,65.83
2023-01-05T12:19:54.751Z,65.65
2023-01-05T12:25:20.225Z,65.30
2023-01-05T12:36:18.615Z,64.97
2023-01-05T12:41:45.950Z,64.86
2023-01-05T12:47:04.565Z,64.09
2023-01-05T12:52:29.305Z,63.85
2023-01-05T12:57:38.956Z,63.41
2023-01-05T13:02:46.471Z,63.29
2023-01-05T13:08:02.049Z,62.86
2023-01-05T13:13:12.001Z,62.79
2023-01-05T13:18:17.653Z,62.33
2023-01-05T13:23:27.346Z,61.98
2023-01-05T13:28:31.306Z,61.68
2023-01-05T13:33:55.275Z,61.39
2023-01-05T13:39:13.649Z,61.53
2023-01-05T13:44:27.073Z,60.72
2023-01-05T13:50:03.128Z,59.92
2023-01-05T13:55:14.668Z,60.52
2023-01-05T14:00:24.983Z,59.69
2023-01-05T14:05:30.331Z,59.80
2023-01-05T14:10:33.941Z,58.99
2023-01-05T14:15:42.255Z,58.35
2023-01-05T14:20:53.746Z,57.78
2023-01-05T14:26:00.377Z,57.44
2023-01-05T14:31:14.366Z,57.03
2023-01-05T14:36:57.164Z,56.81
2023-01-05T14:42:03.908Z,56.53
2023-01-05T14:47:05.725Z,56.87
2023-01-05T14:52:16.334Z,56.61
2023-01-05T14:57:27.054Z,56.67
2023-01-05T15:02:33.299Z,56.55
2023-01-05T15:07:48.379Z,56.63
2023-01-05T15:12:52.327Z,56.65
2023-01-05T15:18:19.810Z,56.75
2023-01-05T15:29:28.353Z,58.40
2023-01-05T15:34:42.652Z,60.12
2023-01-05T15:39:46.061Z,60.62
2023-01-05T15:44:49.807Z,61.36
2023-01-05T15:49:56.488Z,61.89
2023-01-05T15:55:00.549Z,62.06
2023-01-05T16:00:02.441Z,62.22
2023-01-05T16:05:14.343Z,62.21
2023-01-05T16:10:18.453Z,62.64
2023-01-05T16:15:22.139Z,62.20
2023-01-05T16:20:25.896Z,62.47
2023-01-05T16:25:39.426Z,62.77
2023-01-05T16:30:42.101Z,62.95
2023-01-05T16:35:46.158Z,62.69
2023-01-05T16:40:50.470Z,62.92
2023-01-05T16:45:58.028Z,63.00
2023-01-05T16:51:02.246Z,63.42
2023-01-05T16:56:22.013Z,63.27
2023-01-05T17:01:35.161Z,63.32
2023-01-05T17:06:37.020Z,63.64
2023-01-05T17:11:38.677Z,63.79
2023-01-05T17:16:40.083Z,64.08
2023-01-05T17:21:56.326Z,63.75
2023-01-05T17:26:58.059Z,64.03
2023-01-05T17:31:59.683Z,64.77
2023-01-05T17:37:01.200Z,64.62
2023-01-05T17:42:22.674Z,64.70
2023-01-05T17:47:25.247Z,64.40
2023-01-05T17:52:26.575Z,64.77
2023-01-05T17:57:27.971Z,64.88
2023-01-05T18:02:29.342Z,64.92
2023-01-05T18:07:31.953Z,64.74
2023-01-05T18:12:33.553Z,64.29
2023-01-05T18:22:41.624Z,64.53
2023-01-05T18:27:42.977Z,65.22
2023-01-05T18:32:44.374Z,65.25
2023-01-05T18:37:45.723Z,65.21
2023-01-05T18:42:47.092Z,66.21
2023-01-05T18:47:48.454Z,66.45
2023-01-05T18:52:49.895Z,66.20
2023-01-05T18:57:51.254Z,66.21
2023-01-05T19:02:52.623Z,65.93
2023-01-05T19:07:54.565Z,65.87
2023-01-05T19:12:55.929Z,65.97
2023-01-05T19:17:57.373Z,65.92
2023-01-05T19:23:01.675Z,65.89
2023-01-05T19:28:03.106Z,66.38
2023-01-05T19:33:04.557Z,66.69
2023-01-05T19:38:05.910Z,66.87
2023-01-05T19:43:07.280Z,67.25
2023-01-05T19:48:08.605Z,67.18
2023-01-05T19:53:10.796Z,67.84
2023-01-05T19:58:12.207Z,67.70
2023-01-05T20:03:14.391Z,68.36
2023-01-05T20:08:15.883Z,68.73
2023-01-05T20:13:17.286Z,68.88
2023-01-05T20:18:18.699Z,69.05
2023-01-05T20:23:20.081Z,69.31
2023-01-05T20:28:21.441Z,69.73
2023-01-05T20:33:22.994Z,69.47
2023-01-05T20:38:24.362Z,69.59
2023-01-05T20:43:26.825Z,69.52
2023-01-05T20:48:28.235Z,70.08
2023-01-05T20:53:29.940Z,70.47
2023-01-05T20:58:31.993Z,69.87
2023-01-05T21:03:33.841Z,70.31
2023-01-05T21:08:36.339Z,70.02
2023-01-05T21:13:37.680Z,70.26
2023-01-05T21:18:38.991Z,70.47
2023-01-05T21:23:40.511Z,70.19
2023-01-05T21:28:42.775Z,70.26
2023-01-05T21:33:44.742Z,69.97
2023-01-05T21:39:01.126Z,69.95
2023-01-05T21:44:04.879Z,69.86
2023-01-05T21:49:07.547Z,69.95
2023-01-05T21:54:29.235Z,70.48
2023-01-05T21:59:30.669Z,70.57
2023-01-05T22:04:32.066Z,70.64
2023-01-05T22:10:28.254Z,70.71
2023-01-05T22:15:29.576Z,70.21
2023-01-05T22:20:30.929Z,70.65
2023-01-05T22:25:32.322Z,70.54
2023-01-05T22:30:34.745Z,70.64
2023-01-05T22:35:39.576Z,71.38
2023-01-05T22:40:41.090Z,71.59
2023-01-05T22:45:42.545Z,71.92
2023-01-05T22:50:44.718Z,72.02
2023-01-05T22:55:46.169Z,72.31
2023-01-05T23:00:47.645Z,72.50
2023-01-05T23:05:49.042Z,72.66
2023-01-05T23:10:50.461Z,72.91
2023-01-05T23:15:56.051Z,72.65
2023-01-05T23:21:00.003Z,72.82
2023-01-05T23:26:01.470Z,73.09
2023-01-05T23:31:03.072Z,73.15
2023-01-05T23:36:05.292Z,72.84
2023-01-05T23:41:08.653Z,73.23
2023-01-05T23:46:20.001Z,73.08
2023-01-05T23:51:21.555Z,73.05
2023-01-05T23:56:28.793Z,73.38
